PWSweather.com
Personal Weather Stations
Station Observations
IPORTUGA89
BarosaPT

BarosaPT

Lat: 39.754028, Lon: -8.843

Elevation: 98

Station Type: Davis Vp2

High Low Average
Temperature 82.6°F28.1°C 58.6°F14.8°C 66.3°F19.1°C
Dew Point 68.4°F20.2°C 57.2°F14.0°C 61.4°F16.3°C
Winds 8.1 mph 13.0 kmh Calm Calm 3.0 mph WSW4.8 kmh WSW
Wind Gusts 14.1 mph22.7 kmh -- 6.0 mph9.7 kmh
Humidity 96% 59% 86%
Pressure 30.15 in1021.0 mb 30.07 in1018.3 mb -
Precipitation 0.00 in0.0 mm - -
Hour Temp Dew Point Humidity Winds Wind Gusts Pressure Precip Precip Rate Daily Precip Total
12:01 AM 60.8°F16.0°C 58.8°F14.9°C 93% 0.9 mph WNW1.4 kmh WNW 2.0 mph3.2 kmh 30.11 in1019.6 mb 0.00 in0.0 mm 0.00 in0.0 mm 0.00 in0.0 mm
12:12 AM 60.8°F16.0°C 59.0°F15.0°C 94% 0.9 mph WNW1.4 kmh WNW 2.0 mph3.2 kmh 30.11 in1019.6 mb 0.00 in0.0 mm 0.00 in0.0 mm 0.00 in0.0 mm
12:22 AM 60.8°F16.0°C 59.0°F15.0°C 94% Calm Calm -- 30.11 in1019.6 mb 0.00 in0.0 mm 0.00 in0.0 mm 0.00 in0.0 mm
12:32 AM 60.6°F15.9°C 58.8°F14.9°C 94% Calm Calm -- 30.10 in1019.3 mb 0.00 in0.0 mm 0.00 in0.0 mm 0.00 in0.0 mm
12:42 AM 60.6°F15.9°C 58.8°F14.9°C 94% Calm Calm -- 30.10 in1019.3 mb 0.00 in0.0 mm 0.00 in0.0 mm 0.00 in0.0 mm
12:52 AM 60.6°F15.9°C 58.8°F14.9°C 94% Calm Calm -- 30.10 in1019.3 mb 0.00 in0.0 mm 0.00 in0.0 mm 0.00 in0.0 mm
01:02 AM 60.6°F15.9°C 58.8°F14.9°C 94% Calm Calm 2.0 mph3.2 kmh 30.09 in1019.0 mb 0.00 in0.0 mm 0.00 in0.0 mm 0.00 in0.0 mm
01:12 AM 60.4°F15.8°C 58.6°F14.8°C 94% 0.9 mph WNW1.4 kmh WNW 2.9 mph4.7 kmh 30.09 in1019.0 mb 0.00 in0.0 mm 0.00 in0.0 mm 0.00 in0.0 mm
01:22 AM 60.3°F15.7°C 58.5°F14.7°C 94% 0.9 mph WNW1.4 kmh WNW 2.9 mph4.7 kmh 30.09 in1019.0 mb 0.00 in0.0 mm 0.00 in0.0 mm 0.00 in0.0 mm
01:32 AM 60.3°F15.7°C 58.5°F14.7°C 94% 2.0 mph NW3.2 kmh NW 4.9 mph7.9 kmh 30.09 in1019.0 mb 0.00 in0.0 mm 0.00 in0.0 mm 0.00 in0.0 mm
01:42 AM 59.5°F15.3°C 57.7°F14.3°C 94% 2.0 mph W3.2 kmh W 4.0 mph6.4 kmh 30.09 in1019.0 mb 0.00 in0.0 mm 0.00 in0.0 mm 0.00 in0.0 mm
01:52 AM 59.5°F15.3°C 57.7°F14.3°C 94% 0.9 mph W1.4 kmh W 2.9 mph4.7 kmh 30.09 in1019.0 mb 0.00 in0.0 mm 0.00 in0.0 mm 0.00 in0.0 mm
02:02 AM 59.5°F15.3°C 57.7°F14.3°C 94% 2.0 mph WNW3.2 kmh WNW 4.0 mph6.4 kmh 30.09 in1019.0 mb 0.00 in0.0 mm 0.00 in0.0 mm 0.00 in0.0 mm
02:12 AM 59.5°F15.3°C 57.7°F14.3°C 94% 2.0 mph WNW3.2 kmh WNW 4.0 mph6.4 kmh 30.09 in1019.0 mb 0.00 in0.0 mm 0.00 in0.0 mm 0.00 in0.0 mm
02:22 AM 59.5°F15.3°C 57.7°F14.3°C 94% 2.0 mph WNW3.2 kmh WNW 4.9 mph7.9 kmh 30.09 in1019.0 mb 0.00 in0.0 mm 0.00 in0.0 mm 0.00 in0.0 mm
02:33 AM 59.5°F15.3°C 57.7°F14.3°C 94% 2.0 mph NW3.2 kmh NW 4.0 mph6.4 kmh 30.08 in1018.6 mb 0.00 in0.0 mm 0.00 in0.0 mm 0.00 in0.0 mm
02:43 AM 59.5°F15.3°C 57.7°F14.3°C 94% Calm Calm 0.9 mph1.4 kmh 30.09 in1019.0 mb 0.00 in0.0 mm 0.00 in0.0 mm 0.00 in0.0 mm
02:53 AM 59.7°F15.4°C 57.9°F14.4°C 94% 0.9 mph NW1.4 kmh NW 2.0 mph3.2 kmh 30.09 in1019.0 mb 0.00 in0.0 mm 0.00 in0.0 mm 0.00 in0.0 mm
03:03 AM 59.7°F15.4°C 57.9°F14.4°C 94% 2.0 mph ESE3.2 kmh ESE 2.9 mph4.7 kmh 30.08 in1018.6 mb 0.00 in0.0 mm 0.00 in0.0 mm 0.00 in0.0 mm
03:13 AM 59.4°F15.2°C 57.6°F14.2°C 94% 2.9 mph S4.7 kmh S 6.0 mph9.7 kmh 30.09 in1019.0 mb 0.00 in0.0 mm 0.00 in0.0 mm 0.00 in0.0 mm
03:23 AM 59.2°F15.1°C 57.4°F14.1°C 94% 2.9 mph SE4.7 kmh SE 6.0 mph9.7 kmh 30.09 in1019.0 mb 0.00 in0.0 mm 0.00 in0.0 mm 0.00 in0.0 mm
03:33 AM 59.2°F15.1°C 57.4°F14.1°C 94% 2.0 mph SE3.2 kmh SE 4.0 mph6.4 kmh 30.09 in1019.0 mb 0.00 in0.0 mm 0.00 in0.0 mm 0.00 in0.0 mm
03:43 AM 58.8°F14.9°C 57.4°F14.1°C 95% 2.9 mph SSE4.7 kmh SSE 4.9 mph7.9 kmh 30.08 in1018.6 mb 0.00 in0.0 mm 0.00 in0.0 mm 0.00 in0.0 mm
03:53 AM 58.8°F14.9°C 57.4°F14.1°C 95% 2.0 mph SE3.2 kmh SE 4.0 mph6.4 kmh 30.08 in1018.6 mb 0.00 in0.0 mm 0.00 in0.0 mm 0.00 in0.0 mm
04:03 AM 58.8°F14.9°C 57.4°F14.1°C 95% 2.0 mph SE3.2 kmh SE 4.0 mph6.4 kmh 30.08 in1018.6 mb 0.00 in0.0 mm 0.00 in0.0 mm 0.00 in0.0 mm
04:13 AM 58.6°F14.8°C 57.2°F14.0°C 95% 0.9 mph SE1.4 kmh SE 4.0 mph6.4 kmh 30.09 in1019.0 mb 0.00 in0.0 mm 0.00 in0.0 mm 0.00 in0.0 mm
04:23 AM 58.6°F14.8°C 57.2°F14.0°C 95% Calm Calm 0.9 mph1.4 kmh 30.08 in1018.6 mb 0.00 in0.0 mm 0.00 in0.0 mm 0.00 in0.0 mm
04:33 AM 58.8°F14.9°C 57.4°F14.1°C 95% Calm Calm 2.9 mph4.7 kmh 30.09 in1019.0 mb 0.00 in0.0 mm 0.00 in0.0 mm 0.00 in0.0 mm
04:43 AM 58.8°F14.9°C 57.4°F14.1°C 95% 2.0 mph SE3.2 kmh SE 4.0 mph6.4 kmh 30.09 in1019.0 mb 0.00 in0.0 mm 0.00 in0.0 mm 0.00 in0.0 mm
04:53 AM 58.8°F14.9°C 57.4°F14.1°C 95% 2.0 mph S3.2 kmh S 4.9 mph7.9 kmh 30.09 in1019.0 mb 0.00 in0.0 mm 0.00 in0.0 mm 0.00 in0.0 mm
05:03 AM 58.8°F14.9°C 57.4°F14.1°C 95% 2.0 mph SE3.2 kmh SE 4.0 mph6.4 kmh 30.09 in1019.0 mb 0.00 in0.0 mm 0.00 in0.0 mm 0.00 in0.0 mm
05:13 AM 58.8°F14.9°C 57.4°F14.1°C 95% 2.0 mph SE3.2 kmh SE 4.9 mph7.9 kmh 30.09 in1019.0 mb 0.00 in0.0 mm 0.00 in0.0 mm 0.00 in0.0 mm
05:23 AM 58.8°F14.9°C 57.4°F14.1°C 95% 2.0 mph SSE3.2 kmh SSE 4.0 mph6.4 kmh 30.09 in1019.0 mb 0.00 in0.0 mm 0.00 in0.0 mm 0.00 in0.0 mm
05:34 AM 58.8°F14.9°C 57.4°F14.1°C 95% 2.0 mph SE3.2 kmh SE 4.0 mph6.4 kmh 30.09 in1019.0 mb 0.00 in0.0 mm 0.00 in0.0 mm 0.00 in0.0 mm
05:44 AM 59.2°F15.1°C 57.7°F14.3°C 95% 0.9 mph SE1.4 kmh SE 2.9 mph4.7 kmh 30.09 in1019.0 mb 0.00 in0.0 mm 0.00 in0.0 mm 0.00 in0.0 mm
05:54 AM 59.2°F15.1°C 57.7°F14.3°C 95% 2.9 mph SE4.7 kmh SE 4.0 mph6.4 kmh 30.09 in1019.0 mb 0.00 in0.0 mm 0.00 in0.0 mm 0.00 in0.0 mm
06:04 AM 59.2°F15.1°C 57.7°F14.3°C 95% 2.0 mph SSE3.2 kmh SSE 4.0 mph6.4 kmh 30.09 in1019.0 mb 0.00 in0.0 mm 0.00 in0.0 mm 0.00 in0.0 mm
06:14 AM 59.4°F15.2°C 57.9°F14.4°C 95% 2.0 mph SE3.2 kmh SE 4.0 mph6.4 kmh 30.09 in1019.0 mb 0.00 in0.0 mm 0.00 in0.0 mm 0.00 in0.0 mm
06:24 AM 59.4°F15.2°C 57.9°F14.4°C 95% 2.0 mph S3.2 kmh S 4.9 mph7.9 kmh 30.09 in1019.0 mb 0.00 in0.0 mm 0.00 in0.0 mm 0.00 in0.0 mm
06:34 AM 59.2°F15.1°C 57.7°F14.3°C 95% 2.0 mph SSE3.2 kmh SSE 4.9 mph7.9 kmh 30.09 in1019.0 mb 0.00 in0.0 mm 0.00 in0.0 mm 0.00 in0.0 mm
06:44 AM 59.2°F15.1°C 57.7°F14.3°C 95% 4.0 mph S6.4 kmh S 6.9 mph11.1 kmh 30.09 in1019.0 mb 0.00 in0.0 mm 0.00 in0.0 mm 0.00 in0.0 mm
06:54 AM 59.2°F15.1°C 57.7°F14.3°C 95% 2.9 mph S4.7 kmh S 6.9 mph11.1 kmh 30.10 in1019.3 mb 0.00 in0.0 mm 0.00 in0.0 mm 0.00 in0.0 mm
07:04 AM 59.4°F15.2°C 57.9°F14.4°C 95% 0.9 mph SSE1.4 kmh SSE 2.9 mph4.7 kmh 30.10 in1019.3 mb 0.00 in0.0 mm 0.00 in0.0 mm 0.00 in0.0 mm
07:14 AM 59.5°F15.3°C 58.1°F14.5°C 95% 2.0 mph S3.2 kmh S 4.0 mph6.4 kmh 30.10 in1019.3 mb 0.00 in0.0 mm 0.00 in0.0 mm 0.00 in0.0 mm
07:24 AM 59.7°F15.4°C 58.3°F14.6°C 95% 2.9 mph S4.7 kmh S 4.9 mph7.9 kmh 30.11 in1019.6 mb 0.00 in0.0 mm 0.00 in0.0 mm 0.00 in0.0 mm
07:34 AM 60.1°F15.6°C 58.6°F14.8°C 95% 2.9 mph S4.7 kmh S 6.0 mph9.7 kmh 30.11 in1019.6 mb 0.00 in0.0 mm 0.00 in0.0 mm 0.00 in0.0 mm
07:44 AM 60.3°F15.7°C 59.2°F15.1°C 96% 2.9 mph SSE4.7 kmh SSE 6.0 mph9.7 kmh 30.11 in1019.6 mb 0.00 in0.0 mm 0.00 in0.0 mm 0.00 in0.0 mm
07:54 AM 60.6°F15.9°C 59.2°F15.1°C 95% 2.0 mph S3.2 kmh S 4.9 mph7.9 kmh 30.11 in1019.6 mb 0.00 in0.0 mm 0.00 in0.0 mm 0.00 in0.0 mm
08:04 AM 61.0°F16.1°C 59.9°F15.5°C 96% 2.9 mph S4.7 kmh S 4.9 mph7.9 kmh 30.11 in1019.6 mb 0.00 in0.0 mm 0.00 in0.0 mm 0.00 in0.0 mm
08:14 AM 61.2°F16.2°C 59.7°F15.4°C 95% 2.0 mph S3.2 kmh S 2.9 mph4.7 kmh 30.11 in1019.6 mb 0.00 in0.0 mm 0.00 in0.0 mm 0.00 in0.0 mm
08:24 AM 61.5°F16.4°C 60.4°F15.8°C 96% 2.0 mph SE3.2 kmh SE 6.0 mph9.7 kmh 30.11 in1019.6 mb 0.00 in0.0 mm 0.00 in0.0 mm 0.00 in0.0 mm
08:34 AM 61.9°F16.6°C 60.4°F15.8°C 95% 2.9 mph SE4.7 kmh SE 4.9 mph7.9 kmh 30.12 in1020.0 mb 0.00 in0.0 mm 0.00 in0.0 mm 0.00 in0.0 mm
08:44 AM 61.9°F16.6°C 60.4°F15.8°C 95% 4.0 mph SE6.4 kmh SE 6.9 mph11.1 kmh 30.11 in1019.6 mb 0.00 in0.0 mm 0.00 in0.0 mm 0.00 in0.0 mm
08:54 AM 62.2°F16.8°C 61.2°F16.2°C 96% 2.9 mph SE4.7 kmh SE 8.1 mph13.0 kmh 30.12 in1020.0 mb 0.00 in0.0 mm 0.00 in0.0 mm 0.00 in0.0 mm
09:04 AM 62.6°F17.0°C 61.2°F16.2°C 95% 4.0 mph SE6.4 kmh SE 6.9 mph11.1 kmh 30.12 in1020.0 mb 0.00 in0.0 mm 0.00 in0.0 mm 0.00 in0.0 mm
09:14 AM 63.0°F17.2°C 61.9°F16.6°C 96% 2.9 mph SE4.7 kmh SE 6.0 mph9.7 kmh 30.12 in1020.0 mb 0.00 in0.0 mm 0.00 in0.0 mm 0.00 in0.0 mm
09:24 AM 63.1°F17.3°C 61.7°F16.5°C 95% 2.9 mph SE4.7 kmh SE 4.9 mph7.9 kmh 30.12 in1020.0 mb 0.00 in0.0 mm 0.00 in0.0 mm 0.00 in0.0 mm
09:34 AM 63.9°F17.7°C 62.4°F16.9°C 95% 2.9 mph SW4.7 kmh SW 6.9 mph11.1 kmh 30.12 in1020.0 mb 0.00 in0.0 mm 0.00 in0.0 mm 0.00 in0.0 mm
09:44 AM 64.4°F18.0°C 63.0°F17.2°C 95% 0.9 mph S1.4 kmh S 4.0 mph6.4 kmh 30.12 in1020.0 mb 0.00 in0.0 mm 0.00 in0.0 mm 0.00 in0.0 mm
09:55 AM 64.9°F18.3°C 63.5°F17.5°C 95% 2.0 mph NW3.2 kmh NW 6.9 mph11.1 kmh 30.13 in1020.3 mb 0.00 in0.0 mm 0.00 in0.0 mm 0.00 in0.0 mm
10:05 AM 65.8°F18.8°C 64.4°F18.0°C 95% 0.9 mph SSW1.4 kmh SSW 2.9 mph4.7 kmh 30.12 in1020.0 mb 0.00 in0.0 mm 0.00 in0.0 mm 0.00 in0.0 mm
10:15 AM 67.6°F19.8°C 65.8°F18.8°C 94% 2.0 mph WNW3.2 kmh WNW 6.0 mph9.7 kmh 30.12 in1020.0 mb 0.00 in0.0 mm 0.00 in0.0 mm 0.00 in0.0 mm
10:25 AM 69.1°F20.6°C 66.4°F19.1°C 91% 2.9 mph S4.7 kmh S 6.0 mph9.7 kmh 30.12 in1020.0 mb 0.00 in0.0 mm 0.00 in0.0 mm 0.00 in0.0 mm
10:35 AM 70.3°F21.3°C 66.2°F19.0°C 87% 2.0 mph NW3.2 kmh NW 8.1 mph13.0 kmh 30.12 in1020.0 mb 0.00 in0.0 mm 0.00 in0.0 mm 0.00 in0.0 mm
10:45 AM 72.0°F22.2°C 66.6°F19.2°C 83% 2.0 mph NW3.2 kmh NW 6.9 mph11.1 kmh 30.12 in1020.0 mb 0.00 in0.0 mm 0.00 in0.0 mm 0.00 in0.0 mm
10:55 AM 73.2°F22.9°C 66.7°F19.3°C 80% 2.9 mph NNW4.7 kmh NNW 8.1 mph13.0 kmh 30.11 in1019.6 mb 0.00 in0.0 mm 0.00 in0.0 mm 0.00 in0.0 mm
11:05 AM 74.5°F23.6°C 66.4°F19.1°C 76% 2.0 mph NW3.2 kmh NW 6.9 mph11.1 kmh 30.11 in1019.6 mb 0.00 in0.0 mm 0.00 in0.0 mm 0.00 in0.0 mm
11:15 AM 75.0°F23.9°C 66.9°F19.4°C 76% 2.9 mph W4.7 kmh W 6.9 mph11.1 kmh 30.12 in1020.0 mb 0.00 in0.0 mm 0.00 in0.0 mm 0.00 in0.0 mm
11:25 AM 75.9°F24.4°C 67.5°F19.7°C 75% 2.9 mph NW4.7 kmh NW 8.1 mph13.0 kmh 30.11 in1019.6 mb 0.00 in0.0 mm 0.00 in0.0 mm 0.00 in0.0 mm
11:35 AM 75.9°F24.4°C 66.6°F19.2°C 73% 6.0 mph W9.7 kmh W 8.9 mph14.3 kmh 30.11 in1019.6 mb 0.00 in0.0 mm 0.00 in0.0 mm 0.00 in0.0 mm
11:45 AM 76.5°F24.7°C 67.1°F19.5°C 73% 4.0 mph SW6.4 kmh SW 8.1 mph13.0 kmh 30.11 in1019.6 mb 0.00 in0.0 mm 0.00 in0.0 mm 0.00 in0.0 mm
11:55 AM 76.6°F24.8°C 66.2°F19.0°C 70% 4.9 mph NW7.9 kmh NW 8.9 mph14.3 kmh 30.11 in1019.6 mb 0.00 in0.0 mm 0.00 in0.0 mm 0.00 in0.0 mm
12:05 PM 77.5°F25.3°C 66.6°F19.2°C 69% 4.0 mph NW6.4 kmh NW 8.1 mph13.0 kmh 30.10 in1019.3 mb 0.00 in0.0 mm 0.00 in0.0 mm 0.00 in0.0 mm
12:15 PM 78.4°F25.8°C 67.5°F19.7°C 69% 2.9 mph W4.7 kmh W 8.1 mph13.0 kmh 30.10 in1019.3 mb 0.00 in0.0 mm 0.00 in0.0 mm 0.00 in0.0 mm
12:25 PM 79.9°F26.6°C 68.4°F20.2°C 68% 2.9 mph S4.7 kmh S 6.0 mph9.7 kmh 30.10 in1019.3 mb 0.00 in0.0 mm 0.00 in0.0 mm 0.00 in0.0 mm
12:35 PM 80.4°F26.9°C 67.6°F19.8°C 65% 2.9 mph W4.7 kmh W 8.1 mph13.0 kmh 30.10 in1019.3 mb 0.00 in0.0 mm 0.00 in0.0 mm 0.00 in0.0 mm
12:45 PM 80.4°F26.9°C 67.6°F19.8°C 65% 2.9 mph WNW4.7 kmh WNW 8.9 mph14.3 kmh 30.09 in1019.0 mb 0.00 in0.0 mm 0.00 in0.0 mm 0.00 in0.0 mm
12:55 PM 81.1°F27.3°C 67.3°F19.6°C 63% 4.9 mph NNW7.9 kmh NNW 11.0 mph17.7 kmh 30.09 in1019.0 mb 0.00 in0.0 mm 0.00 in0.0 mm 0.00 in0.0 mm
01:05 PM 80.6°F27.0°C 66.9°F19.4°C 63% 6.0 mph NW9.7 kmh NW 11.0 mph17.7 kmh 30.09 in1019.0 mb 0.00 in0.0 mm 0.00 in0.0 mm 0.00 in0.0 mm
01:15 PM 80.6°F27.0°C 66.9°F19.4°C 63% 6.9 mph NW11.1 kmh NW 12.1 mph19.5 kmh 30.09 in1019.0 mb 0.00 in0.0 mm 0.00 in0.0 mm 0.00 in0.0 mm
01:25 PM 81.1°F27.3°C 66.9°F19.4°C 62% 4.9 mph SW7.9 kmh SW 10.1 mph16.3 kmh 30.09 in1019.0 mb 0.00 in0.0 mm 0.00 in0.0 mm 0.00 in0.0 mm
01:35 PM 81.3°F27.4°C 67.1°F19.5°C 62% 6.9 mph N11.1 kmh N 12.1 mph19.5 kmh 30.09 in1019.0 mb 0.00 in0.0 mm 0.00 in0.0 mm 0.00 in0.0 mm
01:45 PM 81.7°F27.6°C 67.5°F19.7°C 62% 6.0 mph WNW9.7 kmh WNW 10.1 mph16.3 kmh 30.08 in1018.6 mb 0.00 in0.0 mm 0.00 in0.0 mm 0.00 in0.0 mm
01:55 PM 81.9°F27.7°C 67.6°F19.8°C 62% 4.9 mph NW7.9 kmh NW 10.1 mph16.3 kmh 30.08 in1018.6 mb 0.00 in0.0 mm 0.00 in0.0 mm 0.00 in0.0 mm
02:05 PM 82.0°F27.8°C 67.3°F19.6°C 61% 6.0 mph WSW9.7 kmh WSW 11.0 mph17.7 kmh 30.08 in1018.6 mb 0.00 in0.0 mm 0.00 in0.0 mm 0.00 in0.0 mm
02:15 PM 82.6°F28.1°C 67.3°F19.6°C 60% 6.0 mph W9.7 kmh W 11.0 mph17.7 kmh 30.08 in1018.6 mb 0.00 in0.0 mm 0.00 in0.0 mm 0.00 in0.0 mm
02:25 PM 82.0°F27.8°C 66.7°F19.3°C 60% 6.0 mph WNW9.7 kmh WNW 11.0 mph17.7 kmh 30.07 in1018.3 mb 0.00 in0.0 mm 0.00 in0.0 mm 0.00 in0.0 mm
02:35 PM 82.0°F27.8°C 66.4°F19.1°C 59% 6.9 mph WSW11.1 kmh WSW 12.1 mph19.5 kmh 30.07 in1018.3 mb 0.00 in0.0 mm 0.00 in0.0 mm 0.00 in0.0 mm
02:45 PM 81.7°F27.6°C 66.0°F18.9°C 59% 6.9 mph SW11.1 kmh SW 12.1 mph19.5 kmh 30.08 in1018.6 mb 0.00 in0.0 mm 0.00 in0.0 mm 0.00 in0.0 mm
02:55 PM 79.9°F26.6°C 65.3°F18.5°C 61% 6.0 mph W9.7 kmh W 14.1 mph22.7 kmh 30.08 in1018.6 mb 0.00 in0.0 mm 0.00 in0.0 mm 0.00 in0.0 mm
03:05 PM 77.7°F25.4°C 65.5°F18.6°C 66% 6.9 mph WSW11.1 kmh WSW 14.1 mph22.7 kmh 30.08 in1018.6 mb 0.00 in0.0 mm 0.00 in0.0 mm 0.00 in0.0 mm
03:15 PM 77.7°F25.4°C 65.5°F18.6°C 66% 6.9 mph WSW11.1 kmh WSW 12.1 mph19.5 kmh 30.08 in1018.6 mb 0.00 in0.0 mm 0.00 in0.0 mm 0.00 in0.0 mm
03:25 PM 77.4°F25.2°C 65.5°F18.6°C 67% 8.1 mph WNW13.0 kmh WNW 12.1 mph19.5 kmh 30.08 in1018.6 mb 0.00 in0.0 mm 0.00 in0.0 mm 0.00 in0.0 mm
03:35 PM 76.3°F24.6°C 65.3°F18.5°C 69% 4.9 mph WSW7.9 kmh WSW 11.0 mph17.7 kmh 30.08 in1018.6 mb 0.00 in0.0 mm 0.00 in0.0 mm 0.00 in0.0 mm
03:45 PM 75.7°F24.3°C 64.8°F18.2°C 69% 6.9 mph NW11.1 kmh NW 12.1 mph19.5 kmh 30.08 in1018.6 mb 0.00 in0.0 mm 0.00 in0.0 mm 0.00 in0.0 mm
03:55 PM 74.7°F23.7°C 64.2°F17.9°C 70% 8.1 mph NW13.0 kmh NW 12.1 mph19.5 kmh 30.08 in1018.6 mb 0.00 in0.0 mm 0.00 in0.0 mm 0.00 in0.0 mm
04:05 PM 73.9°F23.3°C 64.4°F18.0°C 72% 6.9 mph NW11.1 kmh NW 11.0 mph17.7 kmh 30.08 in1018.6 mb 0.00 in0.0 mm 0.00 in0.0 mm 0.00 in0.0 mm
04:15 PM 74.1°F23.4°C 64.6°F18.1°C 72% 6.9 mph NW11.1 kmh NW 12.1 mph19.5 kmh 30.08 in1018.6 mb 0.00 in0.0 mm 0.00 in0.0 mm 0.00 in0.0 mm
04:25 PM 74.3°F23.5°C 64.8°F18.2°C 72% 6.0 mph N9.7 kmh N 10.1 mph16.3 kmh 30.08 in1018.6 mb 0.00 in0.0 mm 0.00 in0.0 mm 0.00 in0.0 mm
04:35 PM 73.2°F22.9°C 64.0°F17.8°C 73% 6.9 mph NNW11.1 kmh NNW 12.1 mph19.5 kmh 30.09 in1019.0 mb 0.00 in0.0 mm 0.00 in0.0 mm 0.00 in0.0 mm
04:45 PM 72.0°F22.2°C 63.1°F17.3°C 74% 6.0 mph WNW9.7 kmh WNW 10.1 mph16.3 kmh 30.08 in1018.6 mb 0.00 in0.0 mm 0.00 in0.0 mm 0.00 in0.0 mm
04:55 PM 71.4°F21.9°C 63.1°F17.3°C 75% 6.0 mph N9.7 kmh N 12.1 mph19.5 kmh 30.08 in1018.6 mb 0.00 in0.0 mm 0.00 in0.0 mm 0.00 in0.0 mm
05:05 PM 71.2°F21.8°C 63.7°F17.6°C 77% 4.0 mph N6.4 kmh N 8.9 mph14.3 kmh 30.08 in1018.6 mb 0.00 in0.0 mm 0.00 in0.0 mm 0.00 in0.0 mm
05:15 PM 71.6°F22.0°C 63.3°F17.4°C 75% 4.0 mph SW6.4 kmh SW 6.9 mph11.1 kmh 30.08 in1018.6 mb 0.00 in0.0 mm 0.00 in0.0 mm 0.00 in0.0 mm
05:25 PM 71.8°F22.1°C 63.5°F17.5°C 75% 2.9 mph N4.7 kmh N 6.9 mph11.1 kmh 30.08 in1018.6 mb 0.00 in0.0 mm 0.00 in0.0 mm 0.00 in0.0 mm
05:35 PM 71.4°F21.9°C 62.8°F17.1°C 74% 4.9 mph NNW7.9 kmh NNW 8.1 mph13.0 kmh 30.08 in1018.6 mb 0.00 in0.0 mm 0.00 in0.0 mm 0.00 in0.0 mm
05:45 PM 70.2°F21.2°C 62.2°F16.8°C 76% 4.9 mph NW7.9 kmh NW 8.9 mph14.3 kmh 30.08 in1018.6 mb 0.00 in0.0 mm 0.00 in0.0 mm 0.00 in0.0 mm
05:56 PM 69.1°F20.6°C 61.9°F16.6°C 78% 4.0 mph W6.4 kmh W 8.1 mph13.0 kmh 30.09 in1019.0 mb 0.00 in0.0 mm 0.00 in0.0 mm 0.00 in0.0 mm
06:06 PM 67.8°F19.9°C 61.3°F16.3°C 80% 4.9 mph WNW7.9 kmh WNW 8.9 mph14.3 kmh 30.09 in1019.0 mb 0.00 in0.0 mm 0.00 in0.0 mm 0.00 in0.0 mm
06:16 PM 66.6°F19.2°C 61.0°F16.1°C 82% 4.9 mph WNW7.9 kmh WNW 8.9 mph14.3 kmh 30.09 in1019.0 mb 0.00 in0.0 mm 0.00 in0.0 mm 0.00 in0.0 mm
06:26 PM 65.7°F18.7°C 60.6°F15.9°C 84% 4.0 mph NW6.4 kmh NW 8.9 mph14.3 kmh 30.10 in1019.3 mb 0.00 in0.0 mm 0.00 in0.0 mm 0.00 in0.0 mm
06:36 PM 64.8°F18.2°C 60.4°F15.8°C 86% 4.0 mph W6.4 kmh W 8.1 mph13.0 kmh 30.09 in1019.0 mb 0.00 in0.0 mm 0.00 in0.0 mm 0.00 in0.0 mm
06:46 PM 64.4°F18.0°C 60.4°F15.8°C 87% 4.0 mph W6.4 kmh W 8.9 mph14.3 kmh 30.09 in1019.0 mb 0.00 in0.0 mm 0.00 in0.0 mm 0.00 in0.0 mm
06:56 PM 64.0°F17.8°C 60.4°F15.8°C 88% 4.9 mph NW7.9 kmh NW 8.9 mph14.3 kmh 30.09 in1019.0 mb 0.00 in0.0 mm 0.00 in0.0 mm 0.00 in0.0 mm
07:06 PM 64.0°F17.8°C 60.8°F16.0°C 89% 4.0 mph NW6.4 kmh NW 8.1 mph13.0 kmh 30.09 in1019.0 mb 0.00 in0.0 mm 0.00 in0.0 mm 0.00 in0.0 mm
07:16 PM 64.0°F17.8°C 60.8°F16.0°C 89% 2.9 mph WSW4.7 kmh WSW 6.9 mph11.1 kmh 30.10 in1019.3 mb 0.00 in0.0 mm 0.00 in0.0 mm 0.00 in0.0 mm
07:26 PM 63.7°F17.6°C 60.4°F15.8°C 89% 4.9 mph WNW7.9 kmh WNW 8.1 mph13.0 kmh 30.10 in1019.3 mb 0.00 in0.0 mm 0.00 in0.0 mm 0.00 in0.0 mm
07:36 PM 63.3°F17.4°C 60.1°F15.6°C 89% 2.9 mph WNW4.7 kmh WNW 8.1 mph13.0 kmh 30.10 in1019.3 mb 0.00 in0.0 mm 0.00 in0.0 mm 0.00 in0.0 mm
07:46 PM 63.3°F17.4°C 60.3°F15.7°C 90% 0.9 mph NW1.4 kmh NW 4.9 mph7.9 kmh 30.10 in1019.3 mb 0.00 in0.0 mm 0.00 in0.0 mm 0.00 in0.0 mm
07:56 PM 63.3°F17.4°C 60.3°F15.7°C 90% 2.0 mph N3.2 kmh N 4.9 mph7.9 kmh 30.11 in1019.6 mb 0.00 in0.0 mm 0.00 in0.0 mm 0.00 in0.0 mm
08:06 PM 63.3°F17.4°C 60.3°F15.7°C 90% 0.9 mph NNW1.4 kmh NNW 2.0 mph3.2 kmh 30.11 in1019.6 mb 0.00 in0.0 mm 0.00 in0.0 mm 0.00 in0.0 mm
08:16 PM 63.3°F17.4°C 60.6°F15.9°C 91% Calm Calm 4.0 mph6.4 kmh 30.11 in1019.6 mb 0.00 in0.0 mm 0.00 in0.0 mm 0.00 in0.0 mm
08:26 PM 63.3°F17.4°C 60.6°F15.9°C 91% Calm Calm -- 30.11 in1019.6 mb 0.00 in0.0 mm 0.00 in0.0 mm 0.00 in0.0 mm
08:37 PM 63.3°F17.4°C 60.6°F15.9°C 91% 0.9 mph NW1.4 kmh NW 2.9 mph4.7 kmh 30.11 in1019.6 mb 0.00 in0.0 mm 0.00 in0.0 mm 0.00 in0.0 mm
08:47 PM 63.3°F17.4°C 60.6°F15.9°C 91% 0.9 mph ESE1.4 kmh ESE 4.9 mph7.9 kmh 30.11 in1019.6 mb 0.00 in0.0 mm 0.00 in0.0 mm 0.00 in0.0 mm
08:57 PM 63.3°F17.4°C 60.6°F15.9°C 91% 0.9 mph SW1.4 kmh SW 4.0 mph6.4 kmh 30.11 in1019.6 mb 0.00 in0.0 mm 0.00 in0.0 mm 0.00 in0.0 mm
09:07 PM 63.3°F17.4°C 60.6°F15.9°C 91% 2.0 mph NW3.2 kmh NW 4.9 mph7.9 kmh 30.11 in1019.6 mb 0.00 in0.0 mm 0.00 in0.0 mm 0.00 in0.0 mm
09:17 PM 63.3°F17.4°C 60.6°F15.9°C 91% 2.0 mph N3.2 kmh N 4.0 mph6.4 kmh 30.12 in1020.0 mb 0.00 in0.0 mm 0.00 in0.0 mm 0.00 in0.0 mm
09:27 PM 63.3°F17.4°C 60.6°F15.9°C 91% 2.0 mph W3.2 kmh W 6.9 mph11.1 kmh 30.11 in1019.6 mb 0.00 in0.0 mm 0.00 in0.0 mm 0.00 in0.0 mm
09:37 PM 63.3°F17.4°C 60.6°F15.9°C 91% 2.0 mph WSW3.2 kmh WSW 4.0 mph6.4 kmh 30.12 in1020.0 mb 0.00 in0.0 mm 0.00 in0.0 mm 0.00 in0.0 mm
09:48 PM 63.3°F17.4°C 60.6°F15.9°C 91% 2.0 mph W3.2 kmh W 4.0 mph6.4 kmh 30.12 in1020.0 mb 0.00 in0.0 mm 0.00 in0.0 mm 0.00 in0.0 mm
09:58 PM 63.1°F17.3°C 60.4°F15.8°C 91% 2.0 mph WSW3.2 kmh WSW 4.9 mph7.9 kmh 30.12 in1020.0 mb 0.00 in0.0 mm 0.00 in0.0 mm 0.00 in0.0 mm
10:08 PM 63.1°F17.3°C 60.4°F15.8°C 91% 0.9 mph WSW1.4 kmh WSW 2.9 mph4.7 kmh 30.12 in1020.0 mb 0.00 in0.0 mm 0.00 in0.0 mm 0.00 in0.0 mm
10:18 PM 63.1°F17.3°C 60.4°F15.8°C 91% 0.9 mph WSW1.4 kmh WSW 2.9 mph4.7 kmh 30.12 in1020.0 mb 0.00 in0.0 mm 0.00 in0.0 mm 0.00 in0.0 mm
10:28 PM 63.1°F17.3°C 60.4°F15.8°C 91% 0.9 mph SW1.4 kmh SW 2.9 mph4.7 kmh 30.12 in1020.0 mb 0.00 in0.0 mm 0.00 in0.0 mm 0.00 in0.0 mm
10:38 PM 63.1°F17.3°C 60.4°F15.8°C 91% 2.0 mph S3.2 kmh S 4.9 mph7.9 kmh 30.13 in1020.3 mb 0.00 in0.0 mm 0.00 in0.0 mm 0.00 in0.0 mm
10:48 PM 63.3°F17.4°C 60.6°F15.9°C 91% 4.9 mph ESE7.9 kmh ESE 8.9 mph14.3 kmh 30.14 in1020.7 mb 0.00 in0.0 mm 0.00 in0.0 mm 0.00 in0.0 mm
10:58 PM 63.3°F17.4°C 60.6°F15.9°C 91% 4.0 mph WSW6.4 kmh WSW 8.9 mph14.3 kmh 30.15 in1021.0 mb 0.00 in0.0 mm 0.00 in0.0 mm 0.00 in0.0 mm
11:09 PM 63.1°F17.3°C 60.4°F15.8°C 91% 0.9 mph SW1.4 kmh SW 4.9 mph7.9 kmh 30.14 in1020.7 mb 0.00 in0.0 mm 0.00 in0.0 mm 0.00 in0.0 mm
11:19 PM 63.0°F17.2°C 59.9°F15.5°C 90% 2.0 mph SW3.2 kmh SW 4.0 mph6.4 kmh 30.14 in1020.7 mb 0.00 in0.0 mm 0.00 in0.0 mm 0.00 in0.0 mm
11:29 PM 62.8°F17.1°C 60.1°F15.6°C 91% 0.9 mph SSW1.4 kmh SSW 2.9 mph4.7 kmh 30.14 in1020.7 mb 0.00 in0.0 mm 0.00 in0.0 mm 0.00 in0.0 mm
11:39 PM 62.4°F16.9°C 59.7°F15.4°C 91% Calm Calm 2.9 mph4.7 kmh 30.14 in1020.7 mb 0.00 in0.0 mm 0.00 in0.0 mm 0.00 in0.0 mm
11:49 PM 62.1°F16.7°C 59.4°F15.2°C 91% Calm Calm -- 30.14 in1020.7 mb 0.00 in0.0 mm 0.00 in0.0 mm 0.00 in0.0 mm
11:59 PM 61.5°F16.4°C 58.8°F14.9°C 91% Calm Calm -- 30.14 in1020.7 mb 0.00 in0.0 mm 0.00 in0.0 mm 0.00 in0.0 mm